Flight Track Log - Related Links

Times and Time Zones

All times are in EDT time to prevent confusion due to time zone crossing. See the UAL1036 flight status page for this flight to view local times or setup timezone preferences in your user account.

Time Position Orientation Groundspeed Altitude Reporting Facility
EDT Latitude Longitude Course Direction KTS MPH feet Rate Location/Type
Sat 01:02:00 AM 0.1668 -78.6378 334° Northwest  Level FlightAware Approximate
Sat 01:03:00 AM 0.2695 -78.6877 334° Northwest  Level FlightAware Approximate
Sat 01:04:00 AM 0.3722 -78.7376 334° Northwest  Level FlightAware Approximate
Sat 01:05:00 AM 0.4748 -78.7874 334° Northwest  Level FlightAware Approximate
Sat 01:06:00 AM 0.5775 -78.8373 334° Northwest  Level FlightAware Approximate
Sat 01:07:00 AM 0.6801 -78.8872 334° Northwest  Level FlightAware Approximate
Sat 01:08:00 AM 0.7828 -78.9371 334° Northwest  Level FlightAware Approximate
Sat 01:09:00 AM 0.8855 -78.9870 334° Northwest  Level FlightAware Approximate
Sat 01:10:00 AM 0.9881 -79.0368 334° Northwest  Level FlightAware Approximate
Sat 01:11:00 AM 1.0908 -79.0867 334° Northwest  Level FlightAware Approximate
Sat 01:12:00 AM 1.1934 -79.1366 334° Northwest  Level FlightAware Approximate
Sat 01:13:00 AM 1.2961 -79.1865 334° Northwest  Level FlightAware Approximate
Sat 01:14:00 AM 1.3988 -79.2364 334° Northwest  Level FlightAware Approximate
Sat 01:15:00 AM 1.5014 -79.2863 334° Northwest  Level FlightAware Approximate
Sat 01:16:00 AM 1.6034 -79.3375 331° Northwest  Level Estimated
Sat 01:17:00 AM 1.7036 -79.3922 331° Northwest  Level FlightAware Approximate
Sat 01:18:00 AM 1.8038 -79.4469 331° Northwest  Level FlightAware Approximate
Sat 01:19:00 AM 1.9040 -79.5016 331° Northwest  Level FlightAware Approximate
Sat 01:20:00 AM 2.0042 -79.5564 331° Northwest  Level FlightAware Approximate
Sat 01:21:00 AM 2.1043 -79.6111 331° Northwest  Level FlightAware Approximate
Sat 01:22:00 AM 2.2045 -79.6658 331° Northwest  Level FlightAware Approximate
Sat 01:23:00 AM 2.3047 -79.7206 331° Northwest  Level FlightAware Approximate
Sat 01:24:00 AM 2.4067 -79.7717 330° Northwest  Level Estimated
Sat 01:25:00 AM 2.5051 -79.8297 329° Northwest  Level FlightAware Approximate
Sat 01:26:00 AM 2.6034 -79.8878 329° Northwest  Level FlightAware Approximate
Sat 01:27:00 AM 2.7017 -79.9458 329° Northwest  Level FlightAware Approximate
Sat 01:28:00 AM 2.8000 -80.0039 329° Northwest  Level FlightAware Approximate
Sat 01:29:00 AM 2.9000 -80.0629 329° Northwest  Level FlightAware Approximate
Sat 01:30:00 AM 2.9999 -80.1219 329° Northwest  Level FlightAware Approximate
Sat 01:31:00 AM 3.1037 -80.1738 331° Northwest  Level Estimated
Sat 01:32:00 AM 3.2043 -80.2310 330° Northwest  Level FlightAware Approximate
Sat 01:33:00 AM 3.3049 -80.2881 330° Northwest  Level FlightAware Approximate
Sat 01:34:00 AM 3.4056 -80.3453 330° Northwest  Level FlightAware Approximate
Sat 01:35:00 AM 3.5062 -80.4025 330° Northwest  Level FlightAware Approximate
Sat 01:36:00 AM 3.6068 -80.4596 330° Northwest  Level FlightAware Approximate
Sat 01:37:00 AM 3.7074 -80.5169 330° Northwest  Level FlightAware Approximate
Sat 01:38:00 AM 3.8079 -80.5741 330° Northwest  Level FlightAware Approximate
Sat 01:39:00 AM 3.9115 -80.6258 330° Northwest  Level Estimated
Sat 01:40:00 AM 4.0119 -80.6833 330° Northwest  Level FlightAware Approximate
Sat 01:41:00 AM 4.1123 -80.7409 330° Northwest  Level FlightAware Approximate
Sat 01:42:00 AM 4.2127 -80.7985 330° Northwest  Level FlightAware Approximate
Sat 01:43:00 AM 4.3131 -80.8560 330° Northwest  Level FlightAware Approximate
Sat 01:44:00 AM 4.4135 -80.9137 330° Northwest  Level FlightAware Approximate
Sat 01:45:00 AM 4.5139 -80.9713 330° Northwest  Level FlightAware Approximate
Sat 01:46:00 AM 4.6142 -81.0289 330° Northwest  Level FlightAware Approximate
Sat 01:47:00 AM 4.7146 -81.0866 330° Northwest  Level FlightAware Approximate
Sat 01:48:00 AM 4.8150 -81.1442 330° Northwest  Level FlightAware Approximate
Sat 01:49:00 AM 4.9153 -81.2019 330° Northwest  Level FlightAware Approximate
Sat 01:50:00 AM 5.0157 -81.2596 330° Northwest  Level FlightAware Approximate
Sat 01:51:00 AM 5.1161 -81.3174 330° Northwest  Level FlightAware Approximate
Sat 01:52:00 AM 5.2164 -81.3751 330° Northwest  Level FlightAware Approximate
Sat 01:53:00 AM 5.3168 -81.4329 330° Northwest  Level FlightAware Approximate
Sat 01:54:00 AM 5.4171 -81.4906 330° Northwest  Level FlightAware Approximate
Sat 01:55:00 AM 5.5174 -81.5484 330° Northwest  Level FlightAware Approximate
Sat 01:56:00 AM 5.6178 -81.6062 330° Northwest  Level FlightAware Approximate
Sat 01:57:00 AM 5.7181 -81.6641 330° Northwest  Level FlightAware Approximate
Sat 01:58:00 AM 5.8184 -81.7219 330° Northwest  Level FlightAware Approximate
Sat 01:59:00 AM 5.9187 -81.7798 330° Northwest  Level FlightAware Approximate
Sat 02:00:00 AM 6.0191 -81.8377 330° Northwest  Level FlightAware Approximate
Sat 02:01:00 AM 6.1193 -81.8956 330° Northwest  Level FlightAware Approximate
Sat 02:02:00 AM 6.2230 -81.9472 330° Northwest  Level Estimated
Sat 02:03:00 AM 6.3231 -82.0056 330° Northwest  Level FlightAware Approximate
Sat 02:04:00 AM 6.4231 -82.0640 330° Northwest  Level FlightAware Approximate
Sat 02:05:00 AM 6.5232 -82.1224 330° Northwest  Level FlightAware Approximate
Sat 02:06:00 AM 6.6232 -82.1808 330° Northwest  Level FlightAware Approximate
Sat 02:07:00 AM 6.7232 -82.2393 330° Northwest  Level FlightAware Approximate
Sat 02:08:00 AM 6.8232 -82.2978 330° Northwest  Level FlightAware Approximate
Sat 02:09:00 AM 6.9233 -82.3563 330° Northwest  Level FlightAware Approximate
Sat 02:10:00 AM 7.0233 -82.4149 330° Northwest  Level FlightAware Approximate
Sat 02:11:00 AM 7.1233 -82.4734 330° Northwest  Level FlightAware Approximate
Sat 02:12:00 AM 7.2232 -82.5320 330° Northwest  Level FlightAware Approximate
Sat 02:13:00 AM 7.3232 -82.5907 330° Northwest  Level FlightAware Approximate
Sat 02:14:00 AM 7.4232 -82.6493 330° Northwest  Level FlightAware Approximate
Sat 02:15:00 AM 7.5232 -82.7080 330° Northwest  Level FlightAware Approximate
Sat 02:16:00 AM 7.6231 -82.7667 330° Northwest  Level FlightAware Approximate
Sat 02:17:00 AM 7.7269 -82.8182 330° Northwest  Level Estimated
Sat 02:18:00 AM 7.8271 -82.8765 330° Northwest  Level FlightAware Approximate
Sat 02:19:00 AM 7.9274 -82.9348 330° Northwest  Level FlightAware Approximate
Sat 02:20:00 AM 8.0276 -82.9931 330° Northwest  Level FlightAware Approximate
Sat 02:21:00 AM 8.1278 -83.0514 330° Northwest  Level FlightAware Approximate
Sat 02:22:00 AM 8.2280 -83.1098 330° Northwest  Level FlightAware Approximate
Sat 02:23:00 AM 8.3281 -83.1682 330° Northwest  Level FlightAware Approximate
Sat 02:24:00 AM 8.4283 -83.2266 330° Northwest  Level FlightAware Approximate
Sat 02:25:00 AM 8.5285 -83.2851 330° Northwest  Level FlightAware Approximate
Sat 02:26:00 AM 8.6287 -83.3436 330° Northwest  Level FlightAware Approximate
Sat 02:27:00 AM 8.7288 -83.4021 330° Northwest  Level FlightAware Approximate
Sat 02:28:00 AM 8.8289 -83.4607 330° Northwest  Level FlightAware Approximate
Sat 02:29:00 AM 8.9291 -83.5193 330° Northwest  Level FlightAware Approximate
Sat 02:30:00 AM 9.0292 -83.5779 330° Northwest  Level FlightAware Approximate
Sat 02:31:00 AM 9.1293 -83.6365 330° Northwest  Level FlightAware Approximate
Sat 02:32:00 AM 9.2294 -83.6952 330° Northwest  Level FlightAware Approximate
Sat 02:33:00 AM 9.3295 -83.7539 330° Northwest  Level FlightAware Approximate
Sat 02:34:00 AM 9.4296 -83.8127 330° Northwest  Level FlightAware Approximate
Sat 02:35:00 AM 9.5297 -83.8715 330° Northwest  Level FlightAware Approximate
Sat 02:36:00 AM 9.6298 -83.9303 330° Northwest  Level FlightAware Approximate
Sat 02:37:00 AM 9.7298 -83.9892 330° Northwest  Level FlightAware Approximate
Sat 02:38:00 AM 9.8299 -84.0480 330° Northwest  Level FlightAware Approximate
Sat 02:39:00 AM 9.9299 -84.1070 330° Northwest  Level FlightAware Approximate
Sat 02:40:00 AM 10.0299 -84.1659 330° Northwest  Level FlightAware Approximate
Sat 02:41:00 AM 10.1299 -84.2250 330° Northwest  Level FlightAware Approximate
Sat 02:42:00 AM 10.2299 -84.2840 330° Northwest  Level FlightAware Approximate
Sat 02:43:00 AM 10.3299 -84.3431 330° Northwest  Level FlightAware Approximate
Sat 02:44:00 AM 10.4299 -84.4022 330° Northwest  Level FlightAware Approximate
Sat 02:45:00 AM 10.5299 -84.4613 330° Northwest  Level FlightAware Approximate
Sat 02:46:00 AM 10.6298 -84.5205 330° Northwest  Level FlightAware Approximate
Sat 02:47:00 AM 10.7298 -84.5798 330° Northwest  Level FlightAware Approximate
Sat 02:48:00 AM 10.8297 -84.6390 330° Northwest  Level FlightAware Approximate
Sat 02:49:00 AM 10.9337 -84.6905 330° Northwest  Level Estimated
Sat 02:50:00 AM 11.0335 -84.7501 330° Northwest  Level FlightAware Approximate
Sat 02:51:00 AM 11.1333 -84.8096 330° Northwest  Level FlightAware Approximate
Sat 02:52:00 AM 11.2331 -84.8693 330° Northwest  Level FlightAware Approximate
Sat 02:53:00 AM 11.3329 -84.9289 330° Northwest  Level FlightAware Approximate
Sat 02:54:00 AM 11.4326 -84.9887 330° Northwest  Level FlightAware Approximate
Sat 02:55:00 AM 11.5324 -85.0484 330° Northwest  Level FlightAware Approximate
Sat 02:56:00 AM 11.6321 -85.1082 330° Northwest  Level FlightAware Approximate
Sat 02:57:00 AM 11.7318 -85.1681 330° Northwest  Level FlightAware Approximate
Sat 02:58:00 AM 11.8315 -85.2280 330° Northwest  Level FlightAware Approximate
Sat 02:59:00 AM 11.9312 -85.2879 330° Northwest  Level FlightAware Approximate
Sat 03:00:00 AM 12.0309 -85.3479 330° Northwest  Level FlightAware Approximate
Sat 03:01:00 AM 12.1305 -85.4079 330° Northwest  Level FlightAware Approximate
Sat 03:02:00 AM 12.2347 -85.4594 330° Northwest  Level Estimated
Sat 03:03:00 AM 12.3346 -85.5191 330° Northwest  Level FlightAware Approximate
Sat 03:04:00 AM 12.4344 -85.5788 330° Northwest  Level FlightAware Approximate
Sat 03:05:00 AM 12.5343 -85.6386 330° Northwest  Level FlightAware Approximate
Sat 03:06:00 AM 12.6341 -85.6984 330° Northwest  Level FlightAware Approximate
Sat 03:07:00 AM 12.7339 -85.7583 330° Northwest  Level FlightAware Approximate
Sat 03:08:00 AM 12.8338 -85.8182 330° Northwest  Level FlightAware Approximate
Sat 03:09:00 AM 12.9336 -85.8782 330° Northwest  Level FlightAware Approximate
Sat 03:10:00 AM 13.0333 -85.9382 330° Northwest  Level FlightAware Approximate
Sat 03:11:00 AM 13.1331 -85.9983 330° Northwest  Level FlightAware Approximate
Sat 03:12:00 AM 13.2329 -86.0584 330° Northwest  Level FlightAware Approximate
Sat 03:13:00 AM 13.3326 -86.1185 330° Northwest  Level FlightAware Approximate
Sat 03:14:00 AM 13.4324 -86.1787 330° Northwest  Level FlightAware Approximate
Sat 03:15:00 AM 13.5321 -86.2390 330° Northwest  Level FlightAware Approximate
Sat 03:16:00 AM 13.6318 -86.2993 330° Northwest  Level FlightAware Approximate
Sat 03:17:00 AM 13.7315 -86.3597 330° Northwest  Level FlightAware Approximate
Sat 03:18:00 AM 13.8311 -86.4201 330° Northwest  Level FlightAware Approximate
Sat 03:19:00 AM 13.9308 -86.4806 330° Northwest  Level FlightAware Approximate
Sat 03:20:00 AM 14.0304 -86.5411 329° Northwest  Level FlightAware Approximate
Sat 03:21:00 AM 14.1301 -86.6017 329° Northwest  Level FlightAware Approximate
Sat 03:22:00 AM 14.2297 -86.6623 329° Northwest  Level FlightAware Approximate
Sat 03:23:00 AM 14.3293 -86.7230 329° Northwest  Level FlightAware Approximate
Sat 03:24:00 AM 14.4289 -86.7837 329° Northwest  Level FlightAware Approximate
Sat 03:25:00 AM 14.5284 -86.8445 329° Northwest  Level FlightAware Approximate
Sat 03:26:00 AM 14.6280 -86.9053 329° Northwest  Level FlightAware Approximate
Sat 03:27:00 AM 14.7275 -86.9662 329° Northwest  Level FlightAware Approximate
Sat 03:28:00 AM 14.8270 -87.0272 329° Northwest  Level FlightAware Approximate
Sat 03:29:00 AM 14.9265 -87.0882 329° Northwest  Level FlightAware Approximate
Sat 03:30:00 AM 15.0260 -87.1493 329° Northwest  Level FlightAware Approximate
Sat 03:31:00 AM 15.1255 -87.2104 329° Northwest  Level FlightAware Approximate
Sat 03:32:00 AM 15.2249 -87.2716 329° Northwest  Level FlightAware Approximate
Sat 03:33:00 AM 15.3295 -87.3229 329° Northwest  Level Estimated
Sat 03:34:00 AM 15.4286 -87.3847 329° Northwest  Level FlightAware Approximate
Sat 03:35:00 AM 15.5277 -87.4466 329° Northwest  Level FlightAware Approximate
Sat 03:36:00 AM 15.6267 -87.5086 329° Northwest  Level FlightAware Approximate
Sat 03:37:00 AM 15.7258 -87.5706 329° Northwest  Level FlightAware Approximate
Sat 03:38:00 AM 15.8248 -87.6327 329° Northwest  Level FlightAware Approximate
Sat 03:39:00 AM 15.9238 -87.6948 329° Northwest  Level FlightAware Approximate
Sat 03:40:00 AM 16.0228 -87.7571 329° Northwest  Level FlightAware Approximate
Sat 03:41:00 AM 16.1218 -87.8193 329° Northwest  Level FlightAware Approximate
Sat 03:42:00 AM 16.2208 -87.8817 329° Northwest  Level FlightAware Approximate
Sat 03:43:00 AM 16.3197 -87.9441 329° Northwest  Level FlightAware Approximate
Sat 03:44:00 AM 16.4186 -88.0065 329° Northwest  Level FlightAware Approximate
Sat 03:45:00 AM 16.5175 -88.0690 329° Northwest  Level FlightAware Approximate
Sat 03:46:00 AM 16.6164 -88.1316 329° Northwest  Level FlightAware Approximate
Sat 03:47:00 AM 16.7153 -88.1943 329° Northwest  Level FlightAware Approximate
Sat 03:48:00 AM 16.8142 -88.2570 329° Northwest  Level FlightAware Approximate
Sat 03:49:00 AM 16.9130 -88.3198 329° Northwest  Level FlightAware Approximate
Sat 03:50:00 AM 17.0118 -88.3826 329° Northwest  Level FlightAware Approximate
Sat 03:51:00 AM 17.1106 -88.4455 329° Northwest  Level FlightAware Approximate
Sat 03:52:00 AM 17.2094 -88.5085 329° Northwest  Level FlightAware Approximate
Sat 03:53:00 AM 17.3081 -88.5716 329° Northwest  Level FlightAware Approximate
Sat 03:54:00 AM 17.4069 -88.6347 329° Northwest  Level FlightAware Approximate
Sat 03:55:00 AM 17.5056 -88.6979 329° Northwest  Level FlightAware Approximate
Sat 03:56:00 AM 17.6043 -88.7611 329° Northwest  Level FlightAware Approximate
Sat 03:57:00 AM 17.7029 -88.8244 329° Northwest  Level FlightAware Approximate
Sat 03:58:00 AM 17.8016 -88.8878 329° Northwest  Level FlightAware Approximate
Sat 03:59:00 AM 17.9068 -88.9384 329° Northwest  Level Estimated
Sat 04:00:00 AM 18.0054 -89.0020 329° Northwest  Level FlightAware Approximate
Sat 04:01:00 AM 18.1040 -89.0656 328° Northwest  Level FlightAware Approximate
Sat 04:02:00 AM 18.2025 -89.1292 328° Northwest  Level FlightAware Approximate
Sat 04:03:00 AM 18.3011 -89.1930 328° Northwest  Level FlightAware Approximate
Sat 04:04:00 AM 18.3996 -89.2568 328° Northwest  Level FlightAware Approximate
Sat 04:05:00 AM 18.4981 -89.3207 328° Northwest  Level FlightAware Approximate
Sat 04:06:00 AM 18.5966 -89.3847 328° Northwest  Level FlightAware Approximate
Sat 04:07:00 AM 18.6951 -89.4487 328° Northwest  Level FlightAware Approximate
Sat 04:08:00 AM 18.7935 -89.5128 328° Northwest  Level FlightAware Approximate
Sat 04:09:00 AM 18.8919 -89.5770 328° Northwest  Level FlightAware Approximate
Sat 04:10:00 AM 18.9903 -89.6413 328° Northwest  Level FlightAware Approximate
Sat 04:11:00 AM 19.0887 -89.7056 328° Northwest  Level FlightAware Approximate
Sat 04:12:00 AM 19.1871 -89.7701 328° Northwest  Level FlightAware Approximate
Sat 04:13:00 AM 19.2854 -89.8345 328° Northwest  Level FlightAware Approximate
Sat 04:14:00 AM 19.3837 -89.8991 328° Northwest  Level FlightAware Approximate
Sat 04:15:00 AM 19.4820 -89.9638 328° Northwest  Level FlightAware Approximate
Sat 04:16:00 AM 19.5802 -90.0285 328° Northwest  Level FlightAware Approximate
Sat 04:17:00 AM 19.6785 -90.0933 328° Northwest  Level FlightAware Approximate
Sat 04:18:00 AM 19.7767 -90.1582 328° Northwest  Level FlightAware Approximate
Sat 04:19:00 AM 19.8749 -90.2232 328° Northwest  Level FlightAware Approximate
Sat 04:20:00 AM 19.9731 -90.2882 328° Northwest  Level FlightAware Approximate
Sat 04:21:00 AM 20.0712 -90.3533 328° Northwest  Level FlightAware Approximate
Sat 04:22:00 AM 20.1693 -90.4186 328° Northwest  Level FlightAware Approximate
Sat 04:23:00 AM 20.2755 -90.4676 328° Northwest  Level Estimated
Sat 04:24:00 AM 20.3726 -90.5345 327° Northwest  Level FlightAware Approximate
Sat 04:25:00 AM 20.4698 -90.6014 327° Northwest  Level FlightAware Approximate
Sat 04:26:00 AM 20.5669 -90.6685 327° Northwest  Level FlightAware Approximate
Sat 04:27:00 AM 20.6640 -90.7356 327° Northwest  Level FlightAware Approximate
Sat 04:28:00 AM 20.7611 -90.8029 327° Northwest  Level FlightAware Approximate
Sat 04:29:00 AM 20.8581 -90.8702 327° Northwest  Level FlightAware Approximate
Sat 04:30:00 AM 20.9552 -90.9376 327° Northwest  Level FlightAware Approximate
Sat 04:31:00 AM 21.0643 -90.9868 341° North  Level Estimated
Sat 04:32:00 AM 21.1734 -91.0362 338° Northwest  Level Estimated
Sat 04:33:00 AM 21.2825 -91.0858 337° Northwest  Level FlightAware Approximate
Sat 04:34:00 AM 21.3915 -91.1354 337° Northwest  Level FlightAware Approximate
Sat 04:35:00 AM 21.5005 -91.1851 337° Northwest  Level FlightAware Approximate
Sat 04:36:00 AM 21.6095 -91.2349 337° Northwest  Level FlightAware Approximate
Sat 04:37:00 AM 21.7185 -91.2848 337° Northwest  Level FlightAware Approximate
Sat 04:38:00 AM 21.8275 -91.3347 337° Northwest  Level FlightAware Approximate
Sat 04:39:00 AM 21.9365 -91.3847 337° Northwest  Level FlightAware Approximate
Sat 04:40:00 AM 22.0454 -91.4348 337° Northwest  Level FlightAware Approximate
Sat 04:41:00 AM 22.1543 -91.4849 337° Northwest  Level FlightAware Approximate
Sat 04:42:00 AM 22.2633 -91.5352 337° Northwest  Level FlightAware Approximate
Sat 04:43:00 AM 22.3722 -91.5855 337° Northwest  Level FlightAware Approximate
Sat 04:44:00 AM 22.4811 -91.6357 338° Northwest  Level Estimated
Sat 04:45:00 AM 22.5909 -91.6838 338° Northwest  Level FlightAware Approximate
Sat 04:46:00 AM 22.7007 -91.7319 338° Northwest  Level FlightAware Approximate
Sat 04:47:00 AM 22.8105 -91.7802 338° Northwest  Level FlightAware Approximate
Sat 04:48:00 AM 22.9202 -91.8285 338° Northwest  Level FlightAware Approximate
Sat 04:49:00 AM 23.0300 -91.8768 338° Northwest  Level FlightAware Approximate
Sat 04:50:00 AM 23.1397 -91.9253 338° Northwest  Level FlightAware Approximate
Sat 04:51:00 AM 23.2494 -91.9738 338° Northwest  Level FlightAware Approximate
Sat 04:52:00 AM 23.3591 -92.0224 338° Northwest  Level FlightAware Approximate
Sat 04:53:00 AM 23.4688 -92.0711 338° Northwest  Level FlightAware Approximate
Sat 04:54:00 AM 23.5784 -92.1199 338° Northwest  Level FlightAware Approximate
Sat 04:55:00 AM 23.6881 -92.1688 338° Northwest  Level FlightAware Approximate
Sat 04:56:00 AM 23.7977 -92.2177 338° Northwest  Level FlightAware Approximate
Sat 04:57:00 AM 23.9074 -92.2667 338° Northwest  Level FlightAware Approximate
Sat 04:58:00 AM 24.0170 -92.3158 338° Northwest  Level FlightAware Approximate
Sat 04:59:00 AM 24.1266 -92.3650 338° Northwest  Level FlightAware Approximate
Sat 05:00:00 AM 24.2361 -92.4143 338° Northwest  Level FlightAware Approximate
Sat 05:01:00 AM 24.3457 -92.4637 338° Northwest  Level FlightAware Approximate
Sat 05:02:00 AM 24.4541 -92.5161 333° Northwest  Level Estimated
Sat 05:03:00 AM 24.5601 -92.5741 334° Northwest  Level FlightAware Approximate
Sat 05:04:00 AM 24.6661 -92.6322 334° Northwest  Level FlightAware Approximate
Sat 05:05:00 AM 24.7745 -92.6847 331° Northwest  Level Estimated
Sat 05:06:00 AM 24.8776 -92.7488 331° Northwest  Level FlightAware Approximate
Sat 05:07:00 AM 24.9808 -92.8131 331° Northwest  Level FlightAware Approximate
Sat 05:08:00 AM 25.0893 -92.8654 333° Northwest  Level Estimated
Sat 05:09:00 AM 25.1916 -92.9312 330° Northwest  Level FlightAware Approximate
Sat 05:10:00 AM 25.3003 -92.9834 331° Northwest  Level Estimated
Sat 05:11:00 AM 25.4032 -93.0481 330° Northwest  Level FlightAware Approximate
Sat 05:12:00 AM 25.5062 -93.1129 330° Northwest  Level FlightAware Approximate
Sat 05:12:36 AM 26.5806 -93.7925 330° Northwest 435 501 38,000  Level Houston Center
Sat 05:13:00 AM 25.6091 -93.1778 330° Northwest  Level FlightAware Approximate
Sat 05:13:36 AM 26.7008 -93.8044 355° North 434 499 38,000  Level Houston Center
Sat 05:14:00 AM 25.7121 -93.2429 330° Northwest  Level FlightAware Approximate
Sat 05:14:36 AM 26.8161 -93.8433 343° North 434 499 38,000  Level Houston Center
Sat 05:15:00 AM 25.8149 -93.3080 330° Northwest  Level FlightAware Approximate
Sat 05:15:36 AM 26.9297 -93.8861 341° North 432 497 38,000  Level Houston Center
Sat 05:16:00 AM 25.9178 -93.3733 330° Northwest  Level FlightAware Approximate
Sat 05:16:37 AM 27.0447 -93.9278 342° North 433 498 38,000  Level Houston Center
Sat 05:17:00 AM 26.0206 -93.4387 330° Northwest  Level FlightAware Approximate
Sat 05:17:37 AM 27.1614 -93.9667 343° North 436 502 38,000  Level Houston Center
Sat 05:18:37 AM 27.2781 -94.0069 343° North 438 504 38,000  Level Houston Center
Sat 05:19:37 AM 27.3939 -94.0494 342° North 438 504 38,000  Level Houston Center
Sat 05:20:37 AM 27.5097 -94.0917 342° North 438 504 38,000  Level Houston Center
Sat 05:21:38 AM 27.6272 -94.1328 343° North 440 506 38,000  Level Houston Center
Sat 05:22:38 AM 27.7431 -94.1753 342° North 439 505 38,000  Level Houston Center
Sat 05:23:38 AM 27.8597 -94.2164 343° North 438 504 38,000  Level Houston Center
Sat 05:24:38 AM 27.9767 -94.2581 343° North 440 506 38,000  Level Houston Center
Sat 05:25:38 AM 28.0928 -94.3014 342° North 440 506 38,000 -300 Level Houston Center
Sat 05:26:38 AM 28.2094 -94.3431 343° North 439 505 37,400 -793 Descending Houston Center
Sat 05:27:39 AM 28.3261 -94.3850 342° North 440 506 36,400 -1,438 Descending Houston Center
Sat 05:28:39 AM 28.4414 -94.4286 342° North 438 504 34,500 -2,350 Descending Houston Center
Sat 05:29:39 AM 28.5586 -94.4703 343° North 440 506 31,700 -2,600 Descending Houston Center
Sat 05:30:39 AM 28.6733 -94.5119 342° North 436 502 29,300 -2,375 Descending Houston Center
Sat 05:31:15 AM 28.7422 -94.5381 342° North 427 491 27,900 -2,200 Descending Houston Center
Sat 05:31:39 AM 28.7856 -94.5536 343° North 426 490 27,100 -2,333 Descending Houston Center
Sat 05:31:51 AM 28.8097 -94.5628 342° North 424 488 26,500 -2,200 Descending Houston Center
Sat 05:32:39 AM 28.8942 -94.5939 342° North 414 476 24,900 -2,164 Descending Houston Center
Sat 05:32:52 AM 28.9211 -94.6061 338° Northwest 407 468 24,300 -2,164 Descending Houston Center
Sat 05:33:40 AM 28.9994 -94.6322 344° North 401 461 22,700 -2,100 Descending Houston Center
Sat 05:33:52 AM 29.0256 -94.6431 340° North 391 450 22,200 -2,000 Descending Houston Center
Sat 05:34:40 AM 29.1008 -94.6692 343° North 386 444 20,700 -2,066 Descending Houston Center
Sat 05:34:53 AM 29.1261 -94.6806 339° North 379 436 20,100 -2,000 Descending Houston Center
Sat 05:35:40 AM 29.1994 -94.7056 343° North 376 433 18,700 -2,100 Descending Houston Center
Sat 05:35:53 AM 29.2308 -94.7200 338° Northwest 371 427 18,000 -2,000 Descending Houston Center
Sat 05:36:40 AM 29.2950 -94.7411 344° North 365 420 16,700 -1,967 Descending Houston Center
Sat 05:36:54 AM 29.3286 -94.7556 339° North 358 412 16,000 -2,000 Descending Houston Center
Sat 05:37:40 AM 29.3892 -94.7761 344° North 359 413 14,700 -1,967 Descending Houston Center
Sat 05:37:55 AM 29.4203 -94.7897 339° North 351 404 14,000 -1,869 Descending Houston Center
Sat 05:38:41 AM 29.4794 -94.8094 344° North 348 400 12,800 -1,900 Descending Houston Center
Sat 05:38:55 AM 29.5117 -94.8236 339° North 339 390 12,100 -1,900 Descending Houston Center
Sat 05:39:41 AM 29.5675 -94.8428 343° North 338 389 10,900 -1,770 Descending Houston Center
Sat 05:39:56 AM 29.5989 -94.8561 340° North 330 380 10,300 -900 Descending Houston Center
Sat 05:40:41 AM 29.6508 -94.8744 343° North 322 371 10,000 -909 Descending Houston Center
Sat 05:41:02 AM 29.6881 -94.8883 342° North 288 331 9,300 -1,400 Descending Houston Center
Sat 05:41:41 AM 29.7264 -94.9022 343° North 294 338 8,600 -1,475 Descending Houston Center
Sat 05:42:03 AM 29.7664 -94.9169 342° North 287 330 7,800 -1,400 Descending Houston Center
Sat 05:42:41 AM 29.8008 -94.9303 341° North 285 328 7,200 -985 Descending Houston Center
Sat 05:43:10 AM 29.8431 -94.9483 340° North 264 304 6,700 -1,000 Descending Houston Center
Sat 05:43:41 AM 29.8694 -94.9572 344° North 267 307 6,200 -1,200 Descending Houston Center
Sat 05:44:10 AM 29.9147 -94.9731 343° North 258 297 5,500 -1,082 Descending Houston Center
Sat 05:44:42 AM 29.9319 -94.9892 321° Northwest 251 289 5,100 -1,279 Descending Houston Center
Sat 05:45:11 AM 29.9517 -95.0314 298° West 223 257 4,200 -1,300 Descending Houston Center
Sat 05:45:42 AM 29.9636 -95.0531 302° West 233 268 3,800 -1,222 Descending Houston Center
Sat 05:46:05 AM 29.9783 -95.0931 293° West 231 266 3,100 -900 Descending Houston Center
Sat 05:46:42 AM 29.9778 -95.1331 269° West 220 253 2,900 -689 Descending Houston Center
Sat 05:47:06 AM 29.9764 -95.1608 267° West 213 245 2,400 -1,100 Descending Houston Center
Sat 05:47:42 AM 29.9792 -95.1986 275° West 213 245 1,800 -984 Descending Houston Center
Sat 05:48:07 AM 29.9778 -95.2211 266° West 166 191 1,400 -787 Descending Houston Center
Sat 05:48:43 AM 29.9778 -95.2497 270° West 186 214 1,000 -800 Descending Houston Center
Sat 05:49:07 AM 29.9781 -95.2692 271° West 145 167 600 -800 Descending Houston Center
Sat 05:49:43 AM 29.9786 -95.2950 271° West 157 181 200 -667 Descending Houston Center

Login

Don't have an account? Register now (free) for customized features, flight alerts, and more!